Time,TemperatureF,DewpointF,PressureIn,WindDirection,WindDirectionDegrees,WindSpeedMPH,WindSpeedGustMPH,Humidity,HourlyPrecipIn,Conditions,Clouds,dailyrainin,SoftwareType,DateUTC
2013-06-10 00:00:00,83.1,34.7,29.91,NW,315,3.8,3.9,17,-99.99,,,-99.99,tws,2013-06-10 07:00:00,
2013-06-10 00:10:00,82.6,34.0,29.92,NNW,337,3.4,4.4,17,-99.99,,,-99.99,tws,2013-06-10 07:10:00,
2013-06-10 00:20:00,82.3,34.2,29.91,NW,315,3.7,4.1,17,-99.99,,,-99.99,tws,2013-06-10 07:20:00,
2013-06-10 00:30:00,81.9,34.6,29.89,NNW,337,3.7,4.2,17,-99.99,,,-99.99,tws,2013-06-10 07:30:00,
2013-06-10 00:40:00,81.4,34.4,29.90,SW,225,3.0,4.2,18,-99.99,,,-99.99,tws,2013-06-10 07:40:00,
2013-06-10 00:50:00,80.7,32.9,29.92,SW,225,3.6,4.6,17,-99.99,,,-99.99,tws,2013-06-10 07:50:00,
2013-06-10 01:00:00,80.2,32.6,29.91,West,270,3.3,4.9,17,-99.99,,,-99.99,tws,2013-06-10 08:00:00,
2013-06-10 01:10:00,79.9,32.7,29.90,West,270,3.2,3.7,17,-99.99,,,-99.99,tws,2013-06-10 08:10:00,
2013-06-10 01:20:00,79.7,32.8,29.90,WNW,292,3.7,4.4,17,-99.99,,,-99.99,tws,2013-06-10 08:20:00,
2013-06-10 01:30:00,79.5,32.7,29.90,West,270,3.5,4.0,17,-99.99,,,-99.99,tws,2013-06-10 08:30:00,
2013-06-10 01:40:00,79.3,33.1,29.90,West,270,2.6,3.4,18,-99.99,,,-99.99,tws,2013-06-10 08:40:00,
2013-06-10 01:50:00,79.1,34.1,29.89,West,270,2.2,2.6,19,-99.99,,,-99.99,tws,2013-06-10 08:50:00,
2013-06-10 02:00:00,78.7,34.1,29.89,NW,315,2.7,3.1,19,-99.99,,,-99.99,tws,2013-06-10 09:00:00,
2013-06-10 02:10:00,78.3,34.2,29.89,WNW,292,3.2,3.7,19,-99.99,,,-99.99,tws,2013-06-10 09:10:00,
2013-06-10 02:20:00,77.9,33.7,29.90,NW,315,3.3,4.0,19,-99.99,,,-99.99,tws,2013-06-10 09:20:00,
2013-06-10 02:30:00,77.9,33.0,29.90,West,270,4.0,5.4,19,-99.99,,,-99.99,tws,2013-06-10 09:30:00,
2013-06-10 02:40:00,78.1,33.0,29.90,NW,315,3.6,4.2,19,-99.99,,,-99.99,tws,2013-06-10 09:40:00,
2013-06-10 02:50:00,78.1,33.1,29.90,WNW,292,3.9,4.1,19,-99.99,,,-99.99,tws,2013-06-10 09:50:00,
2013-06-10 03:00:00,78.1,33.0,29.90,West,270,3.3,4.1,19,-99.99,,,-99.99,tws,2013-06-10 10:00:00,
2013-06-10 03:10:00,78.0,33.4,29.90,NW,315,3.4,3.7,19,-99.99,,,-99.99,tws,2013-06-10 10:10:00,
2013-06-10 03:20:00,77.8,33.2,29.91,WNW,292,3.2,3.6,19,-99.99,,,-99.99,tws,2013-06-10 10:20:00,
2013-06-10 03:30:00,77.5,33.7,29.91,West,270,3.1,3.6,19,-99.99,,,-99.99,tws,2013-06-10 10:30:00,
2013-06-10 03:40:00,77.1,33.7,29.91,West,270,2.7,3.1,20,-99.99,,,-99.99,tws,2013-06-10 10:40:00,
2013-06-10 03:50:00,76.6,33.7,29.91,East,90,1.1,2.6,20,-99.99,,,-99.99,tws,2013-06-10 10:50:00,
2013-06-10 04:00:00,76.1,35.1,29.92,South,180,0.0,0.2,22,-99.99,,,-99.99,tws,2013-06-10 11:00:00,
2013-06-10 04:10:00,75.4,35.8,29.92,NE,45,0.2,0.5,23,-99.99,,,-99.99,tws,2013-06-10 11:10:00,
2013-06-10 04:20:00,74.5,36.3,29.91,North,0,0.8,2.0,24,-99.99,,,-99.99,tws,2013-06-10 11:20:00,
2013-06-10 04:30:00,73.7,36.0,29.93,NW,315,1.7,2.5,24,-99.99,,,-99.99,tws,2013-06-10 11:30:00,
2013-06-10 04:40:00,73.1,36.5,29.92,NW,315,2.2,2.6,25,-99.99,,,-99.99,tws,2013-06-10 11:40:00,
2013-06-10 04:50:00,72.7,35.4,29.92,NW,315,2.5,3.2,25,-99.99,,,-99.99,tws,2013-06-10 11:50:00,
2013-06-10 05:00:00,72.4,35.5,29.93,South,180,1.0,1.7,25,-99.99,,,-99.99,tws,2013-06-10 12:00:00,
2013-06-10 05:10:00,72.2,36.3,29.93,West,270,1.1,1.9,26,-99.99,,,-99.99,tws,2013-06-10 12:10:00,
2013-06-10 05:20:00,71.8,36.7,29.93,SW,225,0.3,1.3,27,-99.99,,,-99.99,tws,2013-06-10 12:20:00,
2013-06-10 05:30:00,71.5,37.1,29.95,NNW,337,0.0,0.0,28,-99.99,,,-99.99,tws,2013-06-10 12:30:00,
2013-06-10 05:40:00,71.2,37.6,29.95,NW,315,0.0,0.0,28,-99.99,,,-99.99,tws,2013-06-10 12:40:00,
2013-06-10 05:50:00,70.9,38.3,29.95,NW,315,2.7,3.6,30,-99.99,,,-99.99,tws,2013-06-10 12:50:00,
2013-06-10 06:00:00,70.8,37.6,29.96,North,0,3.0,3.6,29,-99.99,,,-99.99,tws,2013-06-10 13:00:00,
2013-06-10 06:10:00,70.7,36.8,29.95,NNW,337,3.4,3.9,28,-99.99,,,-99.99,tws,2013-06-10 13:10:00,
2013-06-10 06:30:00,70.5,37.3,29.96,NW,315,5.2,6.1,29,-99.99,,,-99.99,tws,2013-06-10 13:30:00,
2013-06-10 06:40:00,70.8,38.2,29.96,NNW,337,5.1,5.9,30,-99.99,,,-99.99,tws,2013-06-10 13:40:00,
2013-06-10 06:50:00,71.3,38.6,29.96,NNW,337,4.5,5.2,29,-99.99,,,-99.99,tws,2013-06-10 13:50:00,
2013-06-10 07:00:00,72.1,39.4,29.96,West,270,2.8,4.1,30,-99.99,,,-99.99,tws,2013-06-10 14:00:00,
2013-06-10 07:10:00,73.1,40.8,29.97,NW,315,2.5,3.0,30,-99.99,,,-99.99,tws,2013-06-10 14:10:00,
2013-06-10 07:20:00,74.1,41.6,29.98,NW,315,2.0,3.1,30,-99.99,,,-99.99,tws,2013-06-10 14:20:00,
2013-06-10 07:30:00,75.2,41.7,29.98,ENE,67,0.7,1.3,29,-99.99,,,-99.99,tws,2013-06-10 14:30:00,
2013-06-10 07:40:00,76.6,41.6,29.98,SE,135,1.3,2.3,28,-99.99,,,-99.99,tws,2013-06-10 14:40:00,
2013-06-10 07:50:00,78.0,43.9,29.99,SE,135,2.0,2.5,29,-99.99,,,-99.99,tws,2013-06-10 14:50:00,
2013-06-10 08:00:00,79.2,44.8,29.98,SE,135,2.1,2.8,29,-99.99,,,-99.99,tws,2013-06-10 15:00:00,
2013-06-10 08:10:00,79.9,44.8,29.98,SSE,157,2.6,3.1,28,-99.99,,,-99.99,tws,2013-06-10 15:10:00,
2013-06-10 08:20:00,80.7,43.8,29.99,ESE,112,2.5,4.1,26,-99.99,,,-99.99,tws,2013-06-10 15:20:00,
2013-06-10 08:30:00,81.8,44.0,29.99,ENE,67,2.7,3.9,25,-99.99,,,-99.99,tws,2013-06-10 15:30:00,
2013-06-10 08:40:00,83.1,44.6,30.00,SE,135,3.6,4.3,25,-99.99,,,-99.99,tws,2013-06-10 15:40:00,
2013-06-10 08:50:00,84.5,45.2,30.00,ENE,67,2.7,3.9,24,-99.99,,,-99.99,tws,2013-06-10 15:50:00,
2013-06-10 09:00:00,85.4,44.7,30.00,ENE,67,2.8,3.9,23,-99.99,,,-99.99,tws,2013-06-10 16:00:00,
2013-06-10 09:10:00,86.3,43.6,30.00,SE,135,2.9,4.9,22,-99.99,,,-99.99,tws,2013-06-10 16:10:00,
2013-06-10 09:20:00,87.0,43.9,30.00,SE,135,1.9,2.7,21,-99.99,,,-99.99,tws,2013-06-10 16:20:00,
2013-06-10 09:30:00,87.9,44.6,30.00,East,90,2.0,3.0,21,-99.99,,,-99.99,tws,2013-06-10 16:30:00,
2013-06-10 09:40:00,88.7,44.3,30.00,East,90,2.1,3.2,20,-99.99,,,-99.99,tws,2013-06-10 16:40:00,
2013-06-10 09:50:00,89.4,43.9,30.00,SE,135,2.1,3.2,20,-99.99,,,-99.99,tws,2013-06-10 16:50:00,
2013-06-10 10:00:00,90.0,45.1,29.98,North,0,2.3,3.0,20,-99.99,,,-99.99,tws,2013-06-10 17:00:00,
2013-06-10 10:10:00,90.6,45.2,29.98,SE,135,1.4,2.3,20,-99.99,,,-99.99,tws,2013-06-10 17:10:00,
2013-06-10 10:20:00,91.1,44.5,29.98,ESE,112,2.8,4.4,19,-99.99,,,-99.99,tws,2013-06-10 17:20:00,
2013-06-10 10:30:00,91.8,44.6,29.98,East,90,2.7,4.0,19,-99.99,,,-99.99,tws,2013-06-10 17:30:00,
2013-06-10 10:40:00,92.5,44.5,29.97,NNE,22,2.4,3.0,18,-99.99,,,-99.99,tws,2013-06-10 17:40:00,
2013-06-10 10:50:00,93.4,44.7,29.96,North,0,1.8,3.5,18,-99.99,,,-99.99,tws,2013-06-10 17:50:00,
2013-06-10 11:00:00,94.1,44.6,29.96,SE,135,3.2,5.2,17,-99.99,,,-99.99,tws,2013-06-10 18:00:00,
2013-06-10 11:10:00,94.8,43.8,29.96,ENE,67,2.3,3.1,16,-99.99,,,-99.99,tws,2013-06-10 18:10:00,
2013-06-10 11:20:00,95.2,43.0,29.96,South,180,3.6,6.7,16,-99.99,,,-99.99,tws,2013-06-10 18:20:00,
2013-06-10 11:30:00,95.6,44.4,29.96,NE,45,2.6,4.4,16,-99.99,,,-99.99,tws,2013-06-10 18:30:00,
2013-06-10 11:40:00,96.1,43.5,29.96,ESE,112,3.3,6.9,16,-99.99,,,-99.99,tws,2013-06-10 18:40:00,
2013-06-10 11:50:00,96.8,43.8,29.96,SW,225,3.1,4.5,15,-99.99,,,-99.99,tws,2013-06-10 18:50:00,
2013-06-10 12:00:00,97.5,43.3,29.97,NW,315,3.8,5.5,15,-99.99,,,-99.99,tws,2013-06-10 19:00:00,
2013-06-10 12:10:00,98.0,44.3,29.97,South,180,3.2,4.3,15,-99.99,,,-99.99,tws,2013-06-10 19:10:00,
2013-06-10 12:20:00,98.6,42.9,29.96,South,180,6.0,8.5,14,-99.99,,,-99.99,tws,2013-06-10 19:20:00,
2013-06-10 12:30:00,98.9,42.0,29.95,SE,135,4.7,8.6,13,-99.99,,,-99.99,tws,2013-06-10 19:30:00,
2013-06-10 12:40:00,99.2,42.5,29.95,North,360,4.9,6.3,14,-99.99,,,-99.99,tws,2013-06-10 19:40:00,
2013-06-10 12:50:00,99.7,42.4,29.93,South,180,4.9,8.5,13,-99.99,,,-99.99,tws,2013-06-10 19:50:00,
2013-06-10 13:00:00,100.1,43.7,29.93,SW,225,4.3,6.8,14,-99.99,,,-99.99,tws,2013-06-10 20:00:00,
2013-06-10 13:10:00,100.5,42.9,29.94,South,180,5.5,6.9,13,-99.99,,,-99.99,tws,2013-06-10 20:10:00,
2013-06-10 13:20:00,100.5,42.7,29.94,SE,135,8.1,11.1,13,-99.99,,,-99.99,tws,2013-06-10 20:20:00,
2013-06-10 13:30:00,100.7,43.2,29.94,SW,225,5.3,9.1,13,-99.99,,,-99.99,tws,2013-06-10 20:30:00,
2013-06-10 13:40:00,101.0,42.9,29.94,East,90,5.4,8.3,13,-99.99,,,-99.99,tws,2013-06-10 20:40:00,
2013-06-10 13:50:00,101.3,41.4,29.93,SW,225,9.1,14.2,12,-99.99,,,-99.99,tws,2013-06-10 20:50:00,
2013-06-10 14:00:00,101.5,42.3,29.93,South,180,7.8,11.3,12,-99.99,,,-99.99,tws,2013-06-10 21:00:00,
2013-06-10 14:10:00,102.0,43.2,29.93,SE,135,4.1,6.5,13,-99.99,,,-99.99,tws,2013-06-10 21:10:00,
2013-06-10 14:20:00,102.3,43.5,29.93,SE,135,4.3,7.8,13,-99.99,,,-99.99,tws,2013-06-10 21:20:00,
2013-06-10 14:30:00,102.9,43.8,29.91,SSE,157,4.6,6.7,13,-99.99,,,-99.99,tws,2013-06-10 21:30:00,
2013-06-10 14:40:00,103.2,41.7,29.90,SW,225,8.9,13.3,12,-99.99,,,-99.99,tws,2013-06-10 21:40:00,
2013-06-10 14:50:00,103.3,40.4,29.90,SSW,202,5.7,7.4,11,-99.99,,,-99.99,tws,2013-06-10 21:50:00,
2013-06-10 15:00:00,103.3,39.4,29.89,SSW,202,7.2,9.6,10,-99.99,,,-99.99,tws,2013-06-10 22:00:00,
2013-06-10 15:10:00,103.4,39.0,29.89,ESE,112,6.7,10.3,10,-99.99,,,-99.99,tws,2013-06-10 22:10:00,
2013-06-10 15:20:00,103.9,40.6,29.88,ENE,67,4.6,7.7,11,-99.99,,,-99.99,tws,2013-06-10 22:20:00,
2013-06-10 15:30:00,104.3,39.7,29.88,SSE,157,6.4,9.9,10,-99.99,,,-99.99,tws,2013-06-10 22:30:00,
2013-06-10 15:40:00,104.5,39.2,29.89,SW,225,7.3,11.1,10,-99.99,,,-99.99,tws,2013-06-10 22:40:00,
2013-06-10 15:50:00,104.9,38.9,29.88,West,270,5.0,6.3,10,-99.99,,,-99.99,tws,2013-06-10 22:50:00,
2013-06-10 16:00:00,105.4,40.3,29.88,SSE,157,4.7,6.6,10,-99.99,,,-99.99,tws,2013-06-10 23:00:00,
2013-06-10 16:10:00,105.5,38.2,29.88,South,180,8.7,12.4,9,-99.99,,,-99.99,tws,2013-06-10 23:10:00,
2013-06-10 16:20:00,105.1,39.0,29.88,SW,225,5.5,10.5,10,-99.99,,,-99.99,tws,2013-06-10 23:20:00,
2013-06-10 16:30:00,105.0,38.8,29.87,South,180,7.1,9.6,10,-99.99,,,-99.99,tws,2013-06-10 23:30:00,
2013-06-10 16:40:00,105.0,38.7,29.87,South,180,7.4,9.5,10,-99.99,,,-99.99,tws,2013-06-10 23:40:00,
2013-06-10 16:50:00,104.7,38.9,29.87,SE,135,7.7,11.5,10,-99.99,,,-99.99,tws,2013-06-10 23:50:00,
2013-06-10 17:00:00,104.3,38.9,29.87,SE,135,6.8,8.6,10,-99.99,,,-99.99,tws,2013-06-11 00:00:00,
2013-06-10 17:10:00,103.8,38.9,29.85,South,180,7.0,8.7,10,-99.99,,,-99.99,tws,2013-06-11 00:10:00,
2013-06-10 17:20:00,103.4,38.9,29.85,South,180,9.4,11.9,10,-99.99,,,-99.99,tws,2013-06-11 00:20:00,
2013-06-10 17:30:00,102.9,37.6,29.84,SSE,157,8.0,10.1,10,-99.99,,,-99.99,tws,2013-06-11 00:30:00,
2013-06-10 17:40:00,102.5,37.6,29.84,South,180,7.2,10.3,10,-99.99,,,-99.99,tws,2013-06-11 00:40:00,
2013-06-10 17:50:00,102.1,37.3,29.84,SSW,202,7.0,9.1,10,-99.99,,,-99.99,tws,2013-06-11 00:50:00,
2013-06-10 18:00:00,101.6,36.8,29.83,South,180,8.8,12.5,10,-99.99,,,-99.99,tws,2013-06-11 01:00:00,
2013-06-10 18:10:00,101.1,36.4,29.84,South,180,8.0,10.9,10,-99.99,,,-99.99,tws,2013-06-11 01:10:00,
2013-06-10 18:20:00,100.7,36.4,29.84,South,180,6.4,8.2,10,-99.99,,,-99.99,tws,2013-06-11 01:20:00,
2013-06-10 18:30:00,100.3,37.0,29.85,SW,225,7.3,9.8,10,-99.99,,,-99.99,tws,2013-06-11 01:30:00,
2013-06-10 18:40:00,99.9,36.7,29.86,SSE,157,5.6,6.6,10,-99.99,,,-99.99,tws,2013-06-11 01:40:00,
2013-06-10 18:50:00,99.4,37.1,29.86,SW,225,5.8,7.1,11,-99.99,,,-99.99,tws,2013-06-11 01:50:00,
2013-06-10 19:00:00,99.0,37.5,29.85,South,180,6.6,8.3,11,-99.99,,,-99.99,tws,2013-06-11 02:00:00,
2013-06-10 19:10:00,98.5,37.6,29.86,South,180,5.1,7.2,11,-99.99,,,-99.99,tws,2013-06-11 02:10:00,
2013-06-10 19:20:00,97.9,37.5,29.85,South,180,5.2,5.8,12,-99.99,,,-99.99,tws,2013-06-11 02:20:00,
2013-06-10 19:30:00,97.3,37.4,29.85,South,180,4.5,5.6,12,-99.99,,,-99.99,tws,2013-06-11 02:30:00,
2013-06-10 19:40:00,96.7,37.3,29.84,SSW,202,3.8,4.8,12,-99.99,,,-99.99,tws,2013-06-11 02:40:00,
2013-06-10 19:50:00,96.0,37.6,29.85,South,180,3.3,4.0,12,-99.99,,,-99.99,tws,2013-06-11 02:50:00,
2013-06-10 20:00:00,95.2,37.7,29.85,West,270,3.1,3.8,13,-99.99,,,-99.99,tws,2013-06-11 03:00:00,
2013-06-10 20:10:00,94.5,37.5,29.86,SSE,157,3.2,4.1,13,-99.99,,,-99.99,tws,2013-06-11 03:10:00,
2013-06-10 20:20:00,93.8,37.6,29.87,South,180,3.8,4.3,13,-99.99,,,-99.99,tws,2013-06-11 03:20:00,
2013-06-10 20:30:00,93.1,37.8,29.88,SSW,202,3.7,4.1,14,-99.99,,,-99.99,tws,2013-06-11 03:30:00,
2013-06-10 20:40:00,92.5,38.0,29.88,North,360,4.1,5.2,14,-99.99,,,-99.99,tws,2013-06-11 03:40:00,
2013-06-10 20:50:00,91.9,38.0,29.89,SW,225,3.9,4.6,14,-99.99,,,-99.99,tws,2013-06-11 03:50:00,
2013-06-10 21:00:00,91.3,38.4,29.89,SSW,202,4.3,4.9,15,-99.99,,,-99.99,tws,2013-06-11 04:00:00,
2013-06-10 21:10:00,90.8,38.6,29.90,SW,225,4.2,5.2,15,-99.99,,,-99.99,tws,2013-06-11 04:10:00,
2013-06-10 21:20:00,90.4,38.9,29.91,South,180,4.7,5.5,16,-99.99,,,-99.99,tws,2013-06-11 04:20:00,
2013-06-10 21:30:00,90.0,39.0,29.91,SSW,202,5.2,6.0,16,-99.99,,,-99.99,tws,2013-06-11 04:30:00,
2013-06-10 21:40:00,89.7,38.8,29.91,South,180,5.3,6.0,16,-99.99,,,-99.99,tws,2013-06-11 04:40:00,
2013-06-10 21:50:00,89.5,38.7,29.91,SW,225,5.5,6.1,16,-99.99,,,-99.99,tws,2013-06-11 04:50:00,
2013-06-10 22:00:00,89.3,38.8,29.92,SW,225,4.8,5.9,16,-99.99,,,-99.99,tws,2013-06-11 05:00:00,
2013-06-10 22:10:00,89.1,38.6,29.91,SW,225,4.7,5.6,16,-99.99,,,-99.99,tws,2013-06-11 05:10:00,
2013-06-10 22:20:00,88.9,38.4,29.91,SSW,202,3.3,4.7,16,-99.99,,,-99.99,tws,2013-06-11 05:20:00,
2013-06-10 22:30:00,88.6,40.3,29.92,NNW,337,1.4,2.3,18,-99.99,,,-99.99,tws,2013-06-11 05:30:00,
2013-06-10 22:40:00,87.7,41.2,29.92,North,0,1.6,2.4,19,-99.99,,,-99.99,tws,2013-06-11 05:40:00,
2013-06-10 22:50:00,86.6,40.8,29.93,WNW,292,2.6,4.1,19,-99.99,,,-99.99,tws,2013-06-11 05:50:00,
2013-06-10 23:00:00,85.7,39.7,29.92,North,0,1.7,3.9,19,-99.99,,,-99.99,tws,2013-06-11 06:00:00,
2013-06-10 23:10:00,85.1,40.4,29.93,South,180,1.7,3.3,20,-99.99,,,-99.99,tws,2013-06-11 06:10:00,
2013-06-10 23:20:00,84.8,40.8,29.93,NW,315,2.4,3.5,20,-99.99,,,-99.99,tws,2013-06-11 06:20:00,
2013-06-10 23:30:00,84.5,40.5,29.93,SW,225,0.7,1.8,20,-99.99,,,-99.99,tws,2013-06-11 06:30:00,
2013-06-10 23:40:00,84.2,40.7,29.91,West,270,0.4,2.8,21,-99.99,,,-99.99,tws,2013-06-11 06:40:00,
2013-06-10 23:50:00,83.6,40.7,29.91,West,270,3.0,4.2,21,-99.99,,,-99.99,tws,2013-06-11 06:50:00,